Time;durP1;ratioP1;P1;durP2;ratioP2;P2;SDS_P1;SDS_P2;PMS_P1;PMS_P2;Temp;Humidity;BMP_temperature;BMP_pressure;BME280_temperature;BME280_humidity;BME280_pressure;Samples;Min_cycle;Max_cycle;Signal;HPM_P1;HPM_P2
2022/05/26 00:00:03;;;;;;;1.27;0.70;;;15.00;99.90;;;;;;170769;28;1301;-72
2022/05/26 00:00:11;;;;;;;1.08;0.68;;;14.90;99.90;;;;;;170332;29;1404;-72
2022/05/26 00:00:17;;;;;;;0.75;0.50;;;14.90;99.90;;;;;;169780;29;1458;-72
2022/05/26 00:00:22;;;;;;;0.82;0.55;;;15.00;99.90;;;;;;170466;29;883;-72
2022/05/26 00:00:28;;;;;;;0.80;0.60;;;15.00;99.90;;;;;;170605;29;864;-72
2022/05/26 00:00:33;;;;;;;1.50;0.60;;;15.00;99.90;;;;;;170551;29;991;-72
2022/05/26 00:00:39;;;;;;;1.52;0.60;;;15.00;99.90;;;;;;171234;28;914;-72
2022/05/26 00:00:46;;;;;;;3.13;0.63;;;15.00;99.90;;;;;;171227;28;1014;-72
2022/05/26 00:00:52;;;;;;;3.18;0.66;;;15.00;99.90;;;;;;170944;28;1964;-72
2022/05/26 00:00:57;;;;;;;3.33;0.65;;;15.00;99.90;;;;;;171773;28;816;-72
2022/05/26 00:01:05;;;;;;;3.00;0.70;;;15.00;99.90;;;;;;171859;28;902;-72
2022/05/26 00:01:11;;;;;;;2.80;0.70;;;15.00;99.90;;;;;;171189;28;1034;-72
2022/05/26 00:01:17;;;;;;;1.30;0.60;;;15.00;99.90;;;;;;170587;29;978;-72
2022/05/26 00:01:25;;;;;;;1.13;0.53;;;15.00;99.90;;;;;;169865;29;1065;-72
2022/05/26 00:01:30;;;;;;;2.32;0.62;;;15.00;99.90;;;;;;170559;29;963;-72
2022/05/26 00:01:36;;;;;;;3.88;0.75;;;15.00;99.90;;;;;;170554;29;915;-72
2022/05/26 00:01:42;;;;;;;4.47;0.73;;;15.00;99.90;;;;;;170407;29;1321;-72
2022/05/26 00:01:48;;;;;;;4.60;0.82;;;15.00;99.90;;;;;;170234;29;1938;-72
2022/05/26 00:01:53;;;;;;;5.50;0.93;;;15.00;99.90;;;;;;170773;28;1874;-72
2022/05/26 00:01:59;;;;;;;4.22;0.85;;;14.90;99.90;;;;;;170365;28;1707;-72
2022/05/26 00:02:05;;;;;;;2.45;0.70;;;15.00;99.90;;;;;;170124;29;1640;-71
2022/05/26 00:02:11;;;;;;;2.08;0.65;;;14.90;99.90;;;;;;169505;28;2839;-72
2022/05/26 00:02:17;;;;;;;2.10;0.60;;;14.90;99.90;;;;;;169881;29;1038;-72
2022/05/26 00:02:23;;;;;;;1.67;0.65;;;14.90;99.90;;;;;;169873;29;907;-72
2022/05/26 00:02:28;;;;;;;1.52;0.70;;;14.90;99.90;;;;;;169897;29;891;-72
2022/05/26 00:02:34;;;;;;;1.95;0.80;;;15.00;99.90;;;;;;169878;29;888;-72
2022/05/26 00:02:40;;;;;;;2.83;0.90;;;15.00;99.90;;;;;;169901;29;1086;-72
2022/05/26 00:02:47;;;;;;;2.58;0.85;;;14.90;99.90;;;;;;170818;28;1745;-72
2022/05/26 00:02:52;;;;;;;2.23;0.80;;;14.90;99.90;;;;;;171089;28;1325;-72
2022/05/26 00:02:59;;;;;;;2.28;0.80;;;15.00;99.90;;;;;;170469;29;1189;-72
2022/05/26 00:03:04;;;;;;;1.93;0.70;;;15.00;99.90;;;;;;170474;29;1340;-72
2022/05/26 00:03:10;;;;;;;1.20;0.70;;;15.00;99.90;;;;;;171219;28;887;-72
2022/05/26 00:03:15;;;;;;;1.35;0.77;;;15.00;99.90;;;;;;171125;28;1256;-72
2022/05/26 00:03:21;;;;;;;1.48;0.80;;;15.00;99.90;;;;;;170685;28;1261;-72
2022/05/26 00:03:27;;;;;;;1.57;0.87;;;15.00;99.90;;;;;;171144;28;859;-72
2022/05/26 00:03:33;;;;;;;1.65;0.90;;;14.90;99.90;;;;;;170436;29;1291;-72
2022/05/26 00:03:42;;;;;;;1.67;0.90;;;15.00;99.90;;;;;;171270;28;959;-72
2022/05/26 00:03:48;;;;;;;1.54;0.86;;;15.00;99.90;;;;;;171231;28;1058;-72
2022/05/26 00:03:54;;;;;;;1.45;0.80;;;15.00;99.90;;;;;;170554;29;904;-72
2022/05/26 00:04:00;;;;;;;1.58;0.80;;;15.00;99.90;;;;;;169177;29;1179;-72
2022/05/26 00:04:06;;;;;;;1.35;0.75;;;14.90;99.90;;;;;;169276;29;891;-72
2022/05/26 00:04:11;;;;;;;1.35;0.70;;;15.00;99.90;;;;;;170489;29;1363;-72
2022/05/26 00:04:17;;;;;;;1.20;0.70;;;15.00;99.90;;;;;;170225;28;1774;-72
2022/05/26 00:04:23;;;;;;;1.10;0.65;;;15.00;99.90;;;;;;170255;29;921;-72
2022/05/26 00:04:28;;;;;;;0.77;0.60;;;15.00;99.90;;;;;;170923;28;1288;-72
2022/05/26 00:04:34;;;;;;;0.70;0.57;;;15.00;99.90;;;;;;170442;29;956;-72
2022/05/26 00:04:40;;;;;;;0.73;0.60;;;14.90;99.90;;;;;;170018;28;1746;-72
2022/05/26 00:04:45;;;;;;;0.88;0.60;;;14.90;99.90;;;;;;169273;29;801;-72
2022/05/26 00:04:52;;;;;;;0.93;0.63;;;14.90;99.90;;;;;;169900;29;1046;-72
2022/05/26 00:04:58;;;;;;;1.10;0.70;;;15.00;99.90;;;;;;170208;29;1333;-71
2022/05/26 00:05:04;;;;;;;1.10;0.70;;;14.90;99.90;;;;;;170460;29;994;-72
2022/05/26 00:05:10;;;;;;;1.00;0.70;;;15.00;99.90;;;;;;169742;29;1327;-72
2022/05/26 00:05:15;;;;;;;0.88;0.68;;;15.00;99.90;;;;;;169117;29;1358;-72
2022/05/26 00:05:21;;;;;;;0.80;0.63;;;15.00;99.90;;;;;;169460;29;1638;-71
2022/05/26 00:05:28;;;;;;;0.75;0.70;;;15.00;99.90;;;;;;169911;29;836;-72
2022/05/26 00:05:34;;;;;;;0.80;0.70;;;15.00;99.90;;;;;;169842;29;900;-72
2022/05/26 00:05:39;;;;;;;0.98;0.80;;;15.00;99.90;;;;;;169901;29;821;-72
2022/05/26 00:05:45;;;;;;;1.07;0.80;;;15.00;99.90;;;;;;170384;29;1337;-72
2022/05/26 00:05:51;;;;;;;1.07;0.87;;;15.00;99.90;;;;;;169799;29;1202;-72
2022/05/26 00:05:57;;;;;;;1.13;0.80;;;15.00;99.90;;;;;;169813;29;984;-72
2022/05/26 00:06:05;;;;;;;1.33;0.80;;;15.00;99.90;;;;;;170540;29;898;-72
2022/05/26 00:06:13;;;;;;;1.40;0.77;;;15.00;99.90;;;;;;170537;29;1372;-72
2022/05/26 00:06:21;;;;;;;1.57;0.75;;;15.00;99.90;;;;;;169169;29;1463;-72
2022/05/26 00:06:27;;;;;;;2.93;0.70;;;15.00;99.90;;;;;;170380;29;1274;-72
2022/05/26 00:06:33;;;;;;;3.53;0.65;;;15.00;99.90;;;;;;170470;29;902;-72
2022/05/26 00:06:38;;;;;;;3.67;0.70;;;15.00;99.90;;;;;;170390;29;1272;-72
2022/05/26 00:06:44;;;;;;;3.20;0.63;;;15.00;99.90;;;;;;170436;28;1169;-71
2022/05/26 00:06:50;;;;;;;3.67;0.70;;;15.00;99.90;;;;;;170555;29;934;-72
2022/05/26 00:06:56;;;;;;;2.53;0.70;;;15.00;99.90;;;;;;169898;29;888;-72
2022/05/26 00:07:01;;;;;;;1.90;0.70;;;15.00;99.90;;;;;;170563;29;856;-72
2022/05/26 00:07:08;;;;;;;1.88;0.75;;;15.00;99.90;;;;;;170520;29;966;-72
2022/05/26 00:07:13;;;;;;;1.97;0.77;;;15.00;99.90;;;;;;169602;29;1225;-72
2022/05/26 00:07:19;;;;;;;1.52;0.80;;;15.00;99.90;;;;;;169306;29;1526;-72
2022/05/26 00:07:24;;;;;;;1.17;0.80;;;15.00;99.90;;;;;;169796;29;1065;-72
2022/05/26 00:07:31;;;;;;;1.23;0.80;;;15.00;99.90;;;;;;169706;29;1330;-72
2022/05/26 00:07:37;;;;;;;1.50;0.93;;;15.00;99.90;;;;;;169903;29;918;-72
2022/05/26 00:07:42;;;;;;;1.60;0.90;;;15.00;99.90;;;;;;169665;29;1273;-72
2022/05/26 00:07:49;;;;;;;1.88;0.80;;;15.00;99.90;;;;;;169904;29;1073;-72
2022/05/26 00:07:55;;;;;;;2.73;0.90;;;15.00;99.90;;;;;;169866;29;900;-72
2022/05/26 00:08:00;;;;;;;4.25;1.00;;;15.00;99.90;;;;;;169692;29;1370;-72
2022/05/26 00:08:07;;;;;;;3.90;0.93;;;15.00;99.90;;;;;;169889;29;895;-72
2022/05/26 00:08:13;;;;;;;3.60;0.80;;;15.00;99.90;;;;;;169518;29;1762;-72
2022/05/26 00:08:18;;;;;;;3.47;0.90;;;15.00;99.90;;;;;;169506;29;2183;-72
2022/05/26 00:08:24;;;;;;;3.40;0.88;;;15.00;99.90;;;;;;170246;29;994;-72
2022/05/26 00:08:29;;;;;;;1.60;0.73;;;15.00;99.90;;;;;;170315;29;1306;-72
2022/05/26 00:08:39;;;;;;;1.50;0.70;;;15.00;99.90;;;;;;169757;29;1341;-72
2022/05/26 00:08:45;;;;;;;1.71;0.71;;;15.00;99.90;;;;;;169764;29;1182;-72
2022/05/26 00:08:52;;;;;;;1.22;0.68;;;15.00;99.90;;;;;;170599;29;1082;-72
2022/05/26 00:08:59;;;;;;;1.08;0.60;;;15.00;99.90;;;;;;169778;29;1224;-72
2022/05/26 00:09:05;;;;;;;1.10;0.60;;;15.00;99.90;;;;;;170590;29;939;-72
2022/05/26 00:09:10;;;;;;;1.10;0.60;;;15.00;99.90;;;;;;170571;29;805;-72
2022/05/26 00:09:16;;;;;;;0.93;0.70;;;15.00;99.90;;;;;;169812;29;1210;-72
2022/05/26 00:09:22;;;;;;;1.00;0.70;;;14.90;99.90;;;;;;169327;29;1827;-72
2022/05/26 00:09:28;;;;;;;1.04;0.70;;;14.90;99.90;;;;;;170413;29;1248;-72
2022/05/26 00:09:34;;;;;;;1.20;0.73;;;14.90;99.90;;;;;;169797;29;1218;-72
2022/05/26 00:09:40;;;;;;;1.33;0.75;;;14.90;99.90;;;;;;169067;29;1690;-72
2022/05/26 00:09:46;;;;;;;1.17;0.73;;;14.90;99.90;;;;;;169644;29;1694;-72
2022/05/26 00:09:51;;;;;;;1.35;0.80;;;15.00;99.90;;;;;;169579;29;1618;-72
2022/05/26 00:09:57;;;;;;;1.30;0.80;;;15.00;99.90;;;;;;169765;29;1255;-72
2022/05/26 00:10:03;;;;;;;1.25;0.80;;;15.00;99.90;;;;;;169857;29;1010;-72
2022/05/26 00:10:09;;;;;;;1.07;0.70;;;15.00;99.90;;;;;;170158;29;1660;-72
2022/05/26 00:10:14;;;;;;;1.25;0.70;;;14.90;99.90;;;;;;170627;28;1339;-72
2022/05/26 00:10:20;;;;;;;1.23;0.70;;;14.90;99.90;;;;;;170384;29;1605;-72
2022/05/26 00:10:26;;;;;;;1.27;0.70;;;14.90;99.90;;;;;;170238;29;1293;-72
2022/05/26 00:10:34;;;;;;;1.20;0.70;;;14.90;99.90;;;;;;170364;29;1325;-71
2022/05/26 00:10:39;;;;;;;1.22;0.70;;;15.00;99.90;;;;;;170181;29;1364;-72
2022/05/26 00:10:45;;;;;;;1.03;0.70;;;14.90;99.90;;;;;;169691;29;1205;-72
2022/05/26 00:10:51;;;;;;;1.02;0.70;;;14.90;99.90;;;;;;169895;29;900;-72
2022/05/26 00:10:56;;;;;;;1.20;0.70;;;14.90;99.90;;;;;;169628;29;1398;-72
2022/05/26 00:11:05;;;;;;;1.30;0.70;;;14.90;99.90;;;;;;169737;29;928;-72
2022/05/26 00:11:18;;;;;;;1.69;0.76;;;14.90;99.90;;;;;;169669;29;1790;-72
2022/05/26 00:11:31;;;;;;;1.94;0.86;;;14.90;99.90;;;;;;169908;29;2931;-72
2022/05/26 00:11:39;;;;;;;1.70;0.90;;;14.90;99.90;;;;;;169744;29;1507;-72
2022/05/26 00:11:44;;;;;;;1.10;0.84;;;14.90;99.90;;;;;;169190;29;935;-72
2022/05/26 00:11:50;;;;;;;1.38;0.88;;;14.90;99.90;;;;;;169892;29;970;-72
2022/05/26 00:11:56;;;;;;;1.65;0.80;;;14.90;99.90;;;;;;169743;29;1389;-72
2022/05/26 00:12:02;;;;;;;1.60;0.80;;;14.90;99.90;;;;;;169854;29;911;-72
2022/05/26 00:12:08;;;;;;;1.73;0.82;;;14.90;99.90;;;;;;170811;28;1437;-72
2022/05/26 00:12:16;;;;;;;3.90;0.90;;;14.90;99.90;;;;;;170655;28;1263;-72
2022/05/26 00:12:22;;;;;;;3.52;0.88;;;14.90;99.90;;;;;;170170;29;1503;-72
2022/05/26 00:12:27;;;;;;;3.55;0.90;;;14.90;99.90;;;;;;169841;29;1052;-72
2022/05/26 00:12:33;;;;;;;3.90;0.90;;;14.90;99.90;;;;;;170397;29;1333;-72
2022/05/26 00:12:39;;;;;;;3.30;0.88;;;14.90;99.90;;;;;;169779;29;1190;-72
2022/05/26 00:12:44;;;;;;;1.55;0.80;;;14.90;99.90;;;;;;169196;29;1064;-72
2022/05/26 00:12:50;;;;;;;1.57;0.70;;;14.90;99.90;;;;;;169893;29;937;-72
2022/05/26 00:12:56;;;;;;;1.30;0.63;;;14.90;99.90;;;;;;169556;29;1911;-72
2022/05/26 00:13:01;;;;;;;1.30;0.60;;;14.90;99.90;;;;;;170098;29;1423;-71
2022/05/26 00:13:07;;;;;;;0.90;0.60;;;14.90;99.90;;;;;;170567;28;1783;-72
2022/05/26 00:13:13;;;;;;;1.10;0.65;;;14.90;99.90;;;;;;171642;28;883;-72
2022/05/26 00:13:18;;;;;;;1.97;0.80;;;14.90;99.90;;;;;;171879;28;903;-72
2022/05/26 00:13:25;;;;;;;2.22;0.80;;;14.90;99.90;;;;;;171006;28;1916;-72
2022/05/26 00:13:30;;;;;;;3.00;0.85;;;14.90;99.90;;;;;;170417;29;1519;-72
2022/05/26 00:13:37;;;;;;;3.78;0.98;;;14.90;99.90;;;;;;170504;29;924;-72
2022/05/26 00:13:43;;;;;;;3.74;1.00;;;14.90;99.90;;;;;;170392;29;1277;-72
2022/05/26 00:13:49;;;;;;;3.00;1.00;;;14.80;99.90;;;;;;170534;29;915;-72
2022/05/26 00:13:56;;;;;;;2.92;1.08;;;14.80;99.90;;;;;;170546;29;943;-72
2022/05/26 00:14:07;;;;;;;1.70;1.02;;;14.80;99.90;;;;;;170427;29;1659;-72
2022/05/26 00:14:13;;;;;;;1.31;0.93;;;14.80;99.90;;;;;;169803;29;1217;-72
2022/05/26 00:14:19;;;;;;;1.40;0.88;;;14.80;99.90;;;;;;169925;29;950;-73
2022/05/26 00:14:25;;;;;;;1.30;0.80;;;14.80;99.90;;;;;;168792;29;1905;-72
2022/05/26 00:14:30;;;;;;;1.30;0.80;;;14.80;99.90;;;;;;169178;29;852;-72
2022/05/26 00:14:36;;;;;;;1.33;0.73;;;14.80;99.90;;;;;;168781;29;1528;-72
2022/05/26 00:14:42;;;;;;;1.23;0.70;;;14.80;99.90;;;;;;169764;29;1187;-72
2022/05/26 00:14:48;;;;;;;1.17;0.63;;;14.80;99.90;;;;;;170257;29;1698;-72
2022/05/26 00:14:53;;;;;;;1.25;0.70;;;14.80;99.90;;;;;;170237;29;1518;-72
2022/05/26 00:14:59;;;;;;;1.10;0.70;;;14.80;99.90;;;;;;170477;29;1030;-72
2022/05/26 00:15:05;;;;;;;1.17;0.70;;;14.80;99.90;;;;;;170440;29;1536;-71
2022/05/26 00:15:12;;;;;;;1.15;0.70;;;14.80;99.90;;;;;;170588;29;991;-72
2022/05/26 00:15:18;;;;;;;1.67;0.70;;;14.80;99.90;;;;;;170553;29;876;-74
2022/05/26 00:15:23;;;;;;;1.90;0.70;;;14.80;99.90;;;;;;169416;29;1739;-72
2022/05/26 00:15:30;;;;;;;2.00;0.75;;;14.80;99.90;;;;;;169771;29;1444;-71
2022/05/26 00:15:36;;;;;;;1.93;0.80;;;14.80;99.90;;;;;;170072;29;1077;-71
2022/05/26 00:15:41;;;;;;;1.85;0.75;;;14.80;99.90;;;;;;170328;29;888;-72
2022/05/26 00:15:48;;;;;;;1.60;0.77;;;14.70;99.90;;;;;;171192;28;1198;-72
2022/05/26 00:15:53;;;;;;;0.93;0.70;;;14.70;99.90;;;;;;171194;28;876;-71
2022/05/26 00:15:59;;;;;;;0.97;0.70;;;14.80;99.90;;;;;;171199;28;1234;-72
2022/05/26 00:16:05;;;;;;;0.90;0.70;;;14.80;99.90;;;;;;169931;29;828;-72
2022/05/26 00:16:11;;;;;;;3.05;0.85;;;14.80;99.90;;;;;;169841;29;1054;-72
2022/05/26 00:16:18;;;;;;;3.60;0.90;;;14.80;99.90;;;;;;170522;29;1014;-72
2022/05/26 00:16:24;;;;;;;3.75;1.00;;;14.80;99.90;;;;;;169123;29;1729;-72
2022/05/26 00:16:29;;;;;;;3.70;1.00;;;14.80;99.90;;;;;;170118;29;1714;-72
2022/05/26 00:16:37;;;;;;;3.93;1.10;;;14.80;99.90;;;;;;170535;29;1058;-72
2022/05/26 00:16:45;;;;;;;1.75;0.93;;;14.80;99.90;;;;;;169900;29;957;-72
2022/05/26 00:16:51;;;;;;;1.30;0.87;;;14.80;99.90;;;;;;170484;29;955;-72
2022/05/26 00:16:56;;;;;;;1.42;0.95;;;14.80;99.90;;;;;;170299;29;1179;-71
2022/05/26 00:17:02;;;;;;;1.40;0.90;;;14.80;99.90;;;;;;170221;28;1266;-72
2022/05/26 00:17:08;;;;;;;1.00;0.85;;;14.80;99.90;;;;;;171173;28;898;-72
2022/05/26 00:17:14;;;;;;;1.08;0.90;;;14.80;99.90;;;;;;170472;29;1244;-72
2022/05/26 00:17:21;;;;;;;1.13;0.90;;;14.80;99.90;;;;;;170508;29;840;-72
2022/05/26 00:17:28;;;;;;;0.92;0.80;;;14.80;99.90;;;;;;170064;29;1464;-72
2022/05/26 00:17:34;;;;;;;1.33;0.93;;;14.80;99.90;;;;;;170552;29;887;-72
2022/05/26 00:17:40;;;;;;;1.45;0.98;;;14.80;99.90;;;;;;171062;28;1261;-72
2022/05/26 00:17:45;;;;;;;2.25;0.93;;;14.80;99.90;;;;;;170527;28;2082;-71
2022/05/26 00:17:52;;;;;;;2.20;0.90;;;14.80;99.90;;;;;;169411;29;1257;-72
2022/05/26 00:17:58;;;;;;;2.46;0.90;;;14.80;99.90;;;;;;170497;29;974;-72
2022/05/26 00:18:03;;;;;;;2.25;0.80;;;14.80;99.90;;;;;;170504;29;1414;-72
2022/05/26 00:18:09;;;;;;;2.30;0.83;;;14.80;99.90;;;;;;170552;29;890;-72
2022/05/26 00:18:15;;;;;;;1.55;0.80;;;14.80;99.90;;;;;;169938;29;895;-72
2022/05/26 00:18:20;;;;;;;1.65;0.85;;;14.80;99.90;;;;;;169782;29;988;-72
2022/05/26 00:18:26;;;;;;;1.30;0.80;;;14.80;99.90;;;;;;169529;29;1871;-72
2022/05/26 00:18:32;;;;;;;1.25;0.77;;;14.80;99.90;;;;;;169370;29;2192;-72
2022/05/26 00:18:38;;;;;;;1.27;0.70;;;14.80;99.90;;;;;;169163;29;1657;-72
2022/05/26 00:18:43;;;;;;;1.20;0.70;;;14.80;99.90;;;;;;169140;29;1559;-72
2022/05/26 00:18:49;;;;;;;1.10;0.70;;;14.90;99.90;;;;;;169188;29;1245;-72
2022/05/26 00:18:55;;;;;;;1.23;0.70;;;14.90;99.90;;;;;;169210;29;849;-72
2022/05/26 00:19:00;;;;;;;1.40;0.70;;;14.90;99.90;;;;;;169566;29;999;-72
2022/05/26 00:19:06;;;;;;;1.23;0.70;;;14.80;99.90;;;;;;170537;29;886;-72
2022/05/26 00:19:14;;;;;;;1.00;0.70;;;14.90;99.90;;;;;;169757;29;1448;-72
2022/05/26 00:19:20;;;;;;;1.02;0.73;;;14.90;99.90;;;;;;169604;29;1728;-72
2022/05/26 00:19:25;;;;;;;1.07;0.73;;;14.90;99.90;;;;;;169450;29;1994;-72
2022/05/26 00:19:31;;;;;;;0.98;0.75;;;14.90;99.90;;;;;;169527;29;1380;-72
2022/05/26 00:19:36;;;;;;;1.23;0.83;;;14.90;99.90;;;;;;170116;29;1999;-72
2022/05/26 00:19:42;;;;;;;1.30;0.80;;;14.90;99.90;;;;;;169790;29;1403;-71
2022/05/26 00:19:48;;;;;;;1.45;0.80;;;14.90;99.90;;;;;;170449;29;1331;-71
2022/05/26 00:19:54;;;;;;;1.40;0.80;;;14.90;99.90;;;;;;170437;29;1268;-72
2022/05/26 00:19:59;;;;;;;1.80;0.90;;;14.90;99.90;;;;;;170441;29;1659;-72
2022/05/26 00:20:06;;;;;;;1.77;0.90;;;14.90;99.90;;;;;;169682;29;1277;-72
2022/05/26 00:20:12;;;;;;;1.72;0.90;;;14.90;99.90;;;;;;169589;29;1436;-72
2022/05/26 00:20:17;;;;;;;1.50;0.90;;;14.90;99.90;;;;;;169833;29;797;-72
2022/05/26 00:20:23;;;;;;;1.42;0.80;;;14.90;99.90;;;;;;169685;29;975;-72
2022/05/26 00:20:29;;;;;;;1.10;0.80;;;14.90;99.90;;;;;;169458;29;2444;-72
2022/05/26 00:20:35;;;;;;;0.93;0.80;;;14.90;99.90;;;;;;169823;29;793;-72
2022/05/26 00:20:40;;;;;;;0.77;0.70;;;14.90;99.90;;;;;;168976;29;1228;-72
2022/05/26 00:20:46;;;;;;;0.75;0.70;;;14.90;99.90;;;;;;169800;29;1558;-72
2022/05/26 00:20:52;;;;;;;1.07;0.70;;;14.90;99.90;;;;;;170297;29;1295;-72
2022/05/26 00:20:57;;;;;;;1.10;0.70;;;14.90;99.90;;;;;;170488;29;818;-72
2022/05/26 00:21:03;;;;;;;1.25;0.70;;;14.90;99.90;;;;;;171103;28;1369;-72
2022/05/26 00:21:09;;;;;;;2.45;0.80;;;14.80;99.90;;;;;;171109;28;1188;-72
2022/05/26 00:21:15;;;;;;;3.03;0.90;;;14.90;99.90;;;;;;171226;28;994;-72
2022/05/26 00:21:21;;;;;;;3.07;1.00;;;14.90;99.90;;;;;;171236;28;1457;-72
2022/05/26 00:21:27;;;;;;;3.03;0.90;;;14.80;99.90;;;;;;170172;29;1555;-71
2022/05/26 00:21:32;;;;;;;2.90;0.90;;;14.90;99.90;;;;;;170156;29;1671;-72
2022/05/26 00:21:38;;;;;;;2.05;0.90;;;14.80;99.90;;;;;;170534;29;1030;-72
2022/05/26 00:21:46;;;;;;;1.70;0.90;;;14.90;99.90;;;;;;169873;29;1350;-72
2022/05/26 00:21:52;;;;;;;1.38;0.90;;;14.80;99.90;;;;;;169810;29;994;-72
2022/05/26 00:21:58;;;;;;;1.43;0.90;;;14.80;99.90;;;;;;169889;29;999;-72
2022/05/26 00:22:03;;;;;;;1.45;0.90;;;14.80;99.90;;;;;;170418;29;1419;-71
2022/05/26 00:22:09;;;;;;;1.27;0.85;;;14.90;99.90;;;;;;170395;29;1265;-72
2022/05/26 00:22:15;;;;;;;1.40;0.83;;;14.80;99.90;;;;;;170212;29;1170;-72
2022/05/26 00:22:21;;;;;;;1.30;0.76;;;14.90;99.90;;;;;;170689;28;1669;-72
2022/05/26 00:22:27;;;;;;;1.20;0.80;;;14.90;99.90;;;;;;171564;28;1923;-72
2022/05/26 00:22:33;;;;;;;1.30;0.80;;;14.90;99.90;;;;;;171294;28;1738;-72
2022/05/26 00:22:39;;;;;;;1.73;0.80;;;14.90;99.90;;;;;;171105;28;1596;-72
2022/05/26 00:22:44;;;;;;;1.42;0.80;;;14.80;99.90;;;;;;170526;29;1363;-72
2022/05/26 00:22:50;;;;;;;2.20;0.90;;;14.80;99.90;;;;;;170432;29;1708;-72
2022/05/26 00:22:55;;;;;;;2.80;0.90;;;14.80;99.90;;;;;;169806;29;1229;-72
2022/05/26 00:23:01;;;;;;;2.80;0.90;;;14.80;99.90;;;;;;169862;29;1053;-72
2022/05/26 00:23:07;;;;;;;2.17;0.80;;;14.80;99.90;;;;;;170459;29;1554;-72
2022/05/26 00:23:12;;;;;;;2.20;0.80;;;14.80;99.90;;;;;;170213;29;969;-72
2022/05/26 00:23:18;;;;;;;1.73;0.73;;;14.80;99.90;;;;;;171026;28;1224;-72
2022/05/26 00:23:23;;;;;;;1.05;0.68;;;14.80;99.90;;;;;;170390;29;843;-72
2022/05/26 00:23:29;;;;;;;0.73;0.65;;;14.80;99.90;;;;;;170255;29;1484;-72
2022/05/26 00:23:35;;;;;;;1.00;0.67;;;14.80;99.90;;;;;;170806;28;1772;-71
2022/05/26 00:23:41;;;;;;;3.30;0.80;;;14.80;99.90;;;;;;171038;28;1954;-72
2022/05/26 00:23:46;;;;;;;3.55;0.90;;;14.80;99.90;;;;;;171081;28;2011;-72
2022/05/26 00:23:55;;;;;;;3.70;1.00;;;14.80;99.90;;;;;;170352;29;1484;-72
2022/05/26 00:24:00;;;;;;;3.79;1.00;;;14.80;99.90;;;;;;169597;28;1379;-73
2022/05/26 00:24:07;;;;;;;3.07;0.87;;;14.80;99.90;;;;;;169791;29;1139;-72
2022/05/26 00:24:13;;;;;;;1.33;0.73;;;14.80;99.90;;;;;;169110;29;2236;-72
2022/05/26 00:24:19;;;;;;;1.30;0.70;;;14.80;99.90;;;;;;170383;29;880;-72
2022/05/26 00:24:25;;;;;;;1.23;0.77;;;14.80;99.90;;;;;;171118;28;1338;-72
2022/05/26 00:24:30;;;;;;;2.15;0.85;;;14.80;99.90;;;;;;170916;28;1747;-72
2022/05/26 00:24:36;;;;;;;2.27;0.97;;;14.80;99.90;;;;;;170665;28;1679;-72
2022/05/26 00:24:42;;;;;;;3.60;1.05;;;14.80;99.90;;;;;;171863;28;958;-72
2022/05/26 00:24:48;;;;;;;4.17;1.10;;;14.80;99.90;;;;;;171047;28;1299;-72
2022/05/26 00:24:53;;;;;;;4.48;1.10;;;14.80;99.90;;;;;;170572;28;1106;-72
2022/05/26 00:24:59;;;;;;;3.53;1.03;;;14.80;99.90;;;;;;170670;28;1276;-71
2022/05/26 00:25:05;;;;;;;3.38;0.98;;;14.80;99.90;;;;;;170538;29;851;-72
2022/05/26 00:25:10;;;;;;;2.28;0.88;;;14.80;99.90;;;;;;170494;29;1002;-72
2022/05/26 00:25:16;;;;;;;1.57;0.90;;;14.80;99.90;;;;;;170526;29;970;-72
2022/05/26 00:25:22;;;;;;;1.30;0.80;;;14.80;99.90;;;;;;169834;29;862;-72
2022/05/26 00:25:28;;;;;;;3.00;0.85;;;14.80;99.90;;;;;;170410;29;1291;-72
2022/05/26 00:25:33;;;;;;;4.70;0.90;;;14.80;99.90;;;;;;170125;29;1689;-72
2022/05/26 00:25:39;;;;;;;5.00;0.98;;;14.70;99.90;;;;;;170289;28;1600;-72
2022/05/26 00:25:45;;;;;;;5.22;1.05;;;14.80;99.90;;;;;;170268;29;1541;-72
2022/05/26 00:25:51;;;;;;;5.25;1.10;;;14.70;99.90;;;;;;170260;29;987;-72
2022/05/26 00:25:57;;;;;;;4.43;1.08;;;14.70;99.90;;;;;;169906;29;983;-72
2022/05/26 00:26:03;;;;;;;2.10;1.10;;;14.70;99.90;;;;;;169754;29;1235;-71
2022/05/26 00:26:08;;;;;;;2.35;1.10;;;14.70;99.90;;;;;;169776;29;1262;-72
2022/05/26 00:26:14;;;;;;;2.20;1.02;;;14.70;99.90;;;;;;169919;29;990;-72
2022/05/26 00:26:20;;;;;;;2.13;0.95;;;14.70;99.90;;;;;;169118;29;1332;-72
2022/05/26 00:26:25;;;;;;;2.20;0.93;;;14.70;99.90;;;;;;170528;29;851;-72
2022/05/26 00:26:31;;;;;;;2.05;0.90;;;14.70;99.90;;;;;;169651;29;1673;-72
2022/05/26 00:26:37;;;;;;;1.58;0.80;;;14.70;99.90;;;;;;170104;29;1442;-71
2022/05/26 00:26:43;;;;;;;1.27;0.70;;;14.70;99.90;;;;;;169849;29;1061;-72
2022/05/26 00:26:48;;;;;;;1.20;0.70;;;14.70;99.90;;;;;;170077;29;1299;-72
2022/05/26 00:26:54;;;;;;;0.90;0.70;;;14.70;99.90;;;;;;169813;29;925;-72
2022/05/26 00:27:00;;;;;;;1.20;0.80;;;14.70;99.90;;;;;;169897;29;904;-72
2022/05/26 00:27:05;;;;;;;1.27;0.80;;;14.60;99.90;;;;;;169845;29;817;-72
2022/05/26 00:27:11;;;;;;;1.35;0.80;;;14.70;99.90;;;;;;169161;29;1265;-72
2022/05/26 00:27:17;;;;;;;1.27;0.80;;;14.70;99.90;;;;;;170523;29;1243;-72
2022/05/26 00:27:22;;;;;;;1.33;0.80;;;14.60;99.90;;;;;;171060;28;1198;-72
2022/05/26 00:27:28;;;;;;;1.20;0.80;;;14.70;99.90;;;;;;170997;28;1730;-71
2022/05/26 00:27:33;;;;;;;1.13;0.80;;;14.70;99.90;;;;;;170388;28;1626;-73
2022/05/26 00:27:39;;;;;;;1.00;0.70;;;14.60;99.90;;;;;;171126;28;985;-72
2022/05/26 00:27:45;;;;;;;1.20;0.77;;;14.70;99.90;;;;;;171243;28;880;-72
2022/05/26 00:27:50;;;;;;;1.30;0.80;;;14.70;99.90;;;;;;169899;29;880;-72
2022/05/26 00:27:56;;;;;;;1.10;0.70;;;14.60;99.90;;;;;;169892;29;935;-72
2022/05/26 00:28:02;;;;;;;1.00;0.70;;;14.70;99.90;;;;;;169828;29;928;-72
2022/05/26 00:28:08;;;;;;;1.17;0.70;;;14.70;99.90;;;;;;170563;29;1373;-72
2022/05/26 00:28:13;;;;;;;1.33;0.70;;;14.60;99.90;;;;;;170459;29;1478;-72
2022/05/26 00:28:19;;;;;;;1.70;0.70;;;14.60;99.90;;;;;;170510;29;1042;-72
2022/05/26 00:28:25;;;;;;;1.88;0.95;;;14.60;99.90;;;;;;169892;29;863;-72
2022/05/26 00:28:31;;;;;;;3.03;1.10;;;14.60;99.90;;;;;;170427;29;1057;-72
2022/05/26 00:28:37;;;;;;;3.05;1.00;;;14.60;99.90;;;;;;170431;28;2381;-72
2022/05/26 00:28:42;;;;;;;3.45;1.00;;;14.60;99.90;;;;;;171126;28;1022;-72
2022/05/26 00:28:48;;;;;;;4.18;1.00;;;14.60;99.90;;;;;;171219;28;867;-72
2022/05/26 00:28:54;;;;;;;6.47;0.97;;;14.60;99.90;;;;;;171190;28;1024;-72
2022/05/26 00:28:59;;;;;;;5.60;0.80;;;14.60;99.90;;;;;;169852;29;880;-72
2022/05/26 00:29:05;;;;;;;5.27;0.80;;;14.60;99.90;;;;;;170594;28;2037;-72
2022/05/26 00:29:11;;;;;;;5.30;0.80;;;14.60;99.90;;;;;;170559;29;888;-72
2022/05/26 00:29:17;;;;;;;4.05;0.80;;;14.60;99.90;;;;;;170502;28;1251;-72
2022/05/26 00:29:23;;;;;;;1.10;0.73;;;14.60;99.90;;;;;;169967;29;1519;-72
2022/05/26 00:29:28;;;;;;;1.08;0.73;;;14.60;99.90;;;;;;169788;29;931;-72
2022/05/26 00:29:34;;;;;;;1.13;0.80;;;14.60;99.90;;;;;;169581;29;1853;-72
2022/05/26 00:29:40;;;;;;;1.20;0.90;;;14.60;99.90;;;;;;169603;29;911;-71
2022/05/26 00:29:45;;;;;;;1.38;0.90;;;14.60;99.90;;;;;;170486;29;1341;-72
2022/05/26 00:29:53;;;;;;;1.63;1.00;;;14.60;99.90;;;;;;170548;29;909;-72
2022/05/26 00:29:58;;;;;;;1.85;1.00;;;14.60;99.90;;;;;;169131;29;1529;-72
2022/05/26 00:30:04;;;;;;;1.75;0.88;;;14.50;99.90;;;;;;170525;29;927;-72
2022/05/26 00:30:11;;;;;;;1.73;0.87;;;14.60;99.90;;;;;;169760;29;1004;-72
2022/05/26 00:30:16;;;;;;;1.60;0.80;;;14.50;99.90;;;;;;171596;28;1141;-71
2022/05/26 00:30:22;;;;;;;1.35;0.73;;;14.50;99.90;;;;;;171620;28;1207;-71
2022/05/26 00:30:28;;;;;;;2.15;0.70;;;14.50;99.90;;;;;;171891;28;1089;-71
2022/05/26 00:30:34;;;;;;;2.33;0.77;;;14.50;99.90;;;;;;170982;28;2067;-72
2022/05/26 00:30:40;;;;;;;2.40;0.80;;;14.50;99.90;;;;;;170363;28;1506;-72
2022/05/26 00:30:45;;;;;;;2.40;0.82;;;14.50;99.90;;;;;;171743;28;833;-72
2022/05/26 00:30:53;;;;;;;2.50;0.90;;;14.50;99.90;;;;;;171714;28;1257;-72
2022/05/26 00:30:59;;;;;;;1.27;0.80;;;14.50;99.90;;;;;;171877;28;962;-72
2022/05/26 00:31:04;;;;;;;1.83;0.90;;;14.50;99.90;;;;;;170635;29;1050;-71
2022/05/26 00:31:10;;;;;;;1.90;0.90;;;14.50;99.90;;;;;;170362;29;1376;-72
2022/05/26 00:31:16;;;;;;;1.80;0.80;;;14.50;99.90;;;;;;169891;29;868;-72
2022/05/26 00:31:22;;;;;;;1.90;0.90;;;14.50;99.90;;;;;;169866;29;860;-72
2022/05/26 00:31:28;;;;;;;2.55;0.95;;;14.50;99.90;;;;;;169851;29;999;-72
2022/05/26 00:31:33;;;;;;;2.05;0.80;;;14.50;99.90;;;;;;169623;29;1623;-72
2022/05/26 00:31:39;;;;;;;3.30;0.83;;;14.50;99.90;;;;;;170212;29;1452;-72
2022/05/26 00:31:45;;;;;;;5.57;0.90;;;14.50;99.90;;;;;;170526;29;975;-72
2022/05/26 00:31:50;;;;;;;5.47;0.90;;;14.50;99.90;;;;;;171035;28;1454;-72
2022/05/26 00:31:56;;;;;;;5.17;0.90;;;14.50;99.90;;;;;;170542;29;983;-72
2022/05/26 00:32:02;;;;;;;5.05;0.88;;;14.50;99.90;;;;;;170183;29;1281;-72
2022/05/26 00:32:09;;;;;;;5.03;1.00;;;14.50;99.90;;;;;;170013;28;1317;-72
2022/05/26 00:32:14;;;;;;;1.38;0.90;;;14.50;99.90;;;;;;170469;29;1152;-72